Time;durP1;ratioP1;P1;durP2;ratioP2;P2;SDS_P1;SDS_P2;PMS_P1;PMS_P2;Temp;Humidity;BMP_temperature;BMP_pressure;BME280_temperature;BME280_humidity;BME280_pressure;Samples;Min_cycle;Max_cycle;Signal;HPM_P1;HPM_P2
2023/03/23 00:01:24;;;;;;;;;1.33;1.33;;;;;13.96;69.86;100232.41;5027844;28;45355;-75
2023/03/23 00:03:51;;;;;;;;;0.67;0.67;;;;;13.76;69.85;100204.50;5034954;28;48595;-76
2023/03/23 00:06:18;;;;;;;;;0.67;0.67;;;;;13.77;69.96;100186.63;5040503;28;45219;-75
2023/03/23 00:08:49;;;;;;;;;0.33;0.33;;;;;13.95;70.03;100245.94;5057354;28;45403;-74
2023/03/23 00:11:19;;;;;;;;;0.75;0.75;;;;;13.86;70.22;100231.81;5047289;28;45432;-76
2023/03/23 00:13:47;;;;;;;;;0.67;0.67;;;;;13.93;69.54;100242.63;5044908;28;47841;-75
2023/03/23 00:16:19;;;;;;;;;2.00;2.00;;;;;13.75;69.98;100207.34;5036919;28;45597;-77
2023/03/23 00:18:46;;;;;;;;;1.00;0.67;;;;;13.94;69.34;100241.63;5049595;28;45522;-75
2023/03/23 00:21:12;;;;;;;;;1.67;1.67;;;;;13.83;69.54;100213.47;5047388;28;45407;-76
2023/03/23 00:23:39;;;;;;;;;1.67;0.67;;;;;13.76;69.45;100214.34;5048069;28;45556;-75
2023/03/23 00:26:04;;;;;;;;;1.33;1.33;;;;;13.42;68.98;100167.50;5028975;28;45413;-78
2023/03/23 00:28:30;;;;;;;;;1.00;1.00;;;;;13.85;69.14;100232.84;5036041;28;45298;-76
2023/03/23 00:30:56;;;;;;;;;0.67;0.67;;;;;12.81;68.98;100057.06;5024941;28;45588;-76
2023/03/23 00:33:23;;;;;;;;;2.33;2.33;;;;;13.62;69.13;100190.09;5052904;28;45321;-76
2023/03/23 00:35:52;;;;;;;;;1.67;1.33;;;;;13.87;69.02;100238.00;5050303;28;45400;-74
2023/03/23 00:38:19;;;;;;;;;0.67;0.00;;;;;13.87;69.18;100233.50;5052796;28;45317;-76
2023/03/23 00:40:44;;;;;;;;;0.67;0.67;;;;;13.47;69.09;100170.47;5048330;28;45318;-74
2023/03/23 00:43:13;;;;;;;;;3.00;1.67;;;;;13.45;69.28;100177.84;5055889;28;45375;-78
2023/03/23 00:45:39;;;;;;;;;1.33;0.67;;;;;13.81;69.20;100230.69;5037975;28;45270;-76
2023/03/23 00:48:04;;;;;;;;;2.67;1.33;;;;;13.65;68.89;100195.06;5056630;28;45329;-77
2023/03/23 00:50:31;;;;;;;;;1.67;1.67;;;;;13.78;69.17;100210.50;5035421;28;45325;-77
2023/03/23 00:52:56;;;;;;;;;0.33;0.33;;;;;13.46;69.13;100152.81;5050817;28;46632;-76
2023/03/23 00:55:22;;;;;;;;;0.33;0.33;;;;;13.65;69.11;100183.56;5048247;28;45465;-76
2023/03/23 00:57:50;;;;;;;;;1.67;1.67;;;;;13.81;68.95;100214.66;5043995;28;45396;-76
2023/03/23 01:00:16;;;;;;;;;2.00;1.00;;;;;13.36;69.11;100145.00;5037253;28;45312;-75
2023/03/23 01:02:44;;;;;;;;;0.33;0.33;;;;;13.46;69.18;100158.13;5055722;28;48116;-77
2023/03/23 01:05:10;;;;;;;;;2.00;2.00;;;;;13.42;69.18;100154.16;5055828;28;45515;-74
2023/03/23 01:07:36;;;;;;;;;2.67;2.00;;;;;13.65;69.85;100194.25;5035302;28;45491;-76
2023/03/23 01:10:03;;;;;;;;;2.67;1.33;;;;;12.98;69.30;100079.97;5050598;28;45590;-76
2023/03/23 01:12:28;;;;;;;;;2.67;1.67;;;;;13.80;69.54;100213.81;5037594;28;47309;-75
2023/03/23 01:14:53;;;;;;;;;1.00;1.00;;;;;13.73;69.57;100202.19;5056099;28;45476;-75
2023/03/23 01:17:20;;;;;;;;;1.33;1.33;;;;;13.80;70.05;100229.00;5035968;28;45412;-76
2023/03/23 01:19:46;;;;;;;;;2.00;1.00;;;;;13.44;70.03;100175.34;5039446;28;45264;-76
2023/03/23 01:22:11;;;;;;;;;2.00;1.00;;;;;13.00;69.98;100091.28;5042345;28;46374;-74
2023/03/23 01:24:37;;;;;;;;;2.33;2.33;;;;;13.35;70.28;100145.19;5042372;28;45648;-77
2023/03/23 01:27:06;;;;;;;;;3.00;2.00;;;;;13.19;70.25;100111.41;5046121;28;45294;-76
2023/03/23 01:29:33;;;;;;;;;5.00;2.00;;;;;13.33;70.24;100148.03;5022035;28;46050;-77
2023/03/23 01:31:58;;;;;;;;;4.00;3.00;;;;;13.28;70.63;100149.56;5052281;28;45214;-76
2023/03/23 01:34:24;;;;;;;;;2.00;2.00;;;;;13.50;70.79;100194.16;5050620;28;45259;-77
2023/03/23 01:36:49;;;;;;;;;1.33;1.33;;;;;13.62;70.37;100200.78;5049756;28;45515;-75
2023/03/23 01:39:15;;;;;;;;;3.00;2.00;;;;;13.33;70.61;100147.19;5052489;28;45536;-75
2023/03/23 01:41:41;;;;;;;;;1.33;1.33;;;;;13.65;70.70;100189.72;5039303;28;45860;-75
2023/03/23 01:44:15;;;;;;;;;2.67;2.67;;;;;13.67;70.33;100202.91;5031455;28;45254;-75
2023/03/23 01:46:40;;;;;;;;;0.67;0.67;;;;;13.57;70.54;100184.41;5056130;28;45529;-77
2023/03/23 01:49:10;;;;;;;;;1.33;1.33;;;;;13.37;70.59;100127.13;5053416;28;45466;-77
2023/03/23 01:51:40;;;;;;;;;1.00;1.00;;;;;13.66;70.46;100166.50;5033466;28;48646;-74
2023/03/23 01:54:10;;;;;;;;;2.00;0.67;;;;;13.65;70.45;100183.56;5054575;28;45479;-73
2023/03/23 01:56:45;;;;;;;;;2.00;1.67;;;;;13.26;70.50;100098.19;5039713;28;45423;-74
2023/03/23 01:59:11;;;;;;;;;2.00;1.33;;;;;13.66;70.23;100158.50;5058808;28;45388;-73
2023/03/23 02:01:40;;;;;;;;;1.00;1.00;;;;;13.62;70.26;100142.00;5058337;28;46557;-75
2023/03/23 02:04:07;;;;;;;;;1.33;1.33;;;;;13.54;70.05;100128.69;5040386;28;46090;-76
2023/03/23 02:06:33;;;;;;;;;2.00;2.00;;;;;13.68;70.22;100148.47;5050059;28;45460;-77
2023/03/23 02:08:59;;;;;;;;;1.67;1.67;;;;;13.57;70.58;100133.66;5042520;28;45611;-75
2023/03/23 02:11:25;;;;;;;;;0.33;0.33;;;;;13.60;70.77;100144.00;5047050;28;46333;-75
2023/03/23 02:13:50;;;;;;;;;2.67;1.33;;;;;12.76;70.53;100008.75;5036525;28;45473;-76
2023/03/23 02:16:42;;;;;;;;;1.67;0.67;;;;;13.55;71.01;100146.38;5039175;28;45451;-76
2023/03/23 02:19:23;;;;;;;;;1.00;1.00;;;;;13.53;71.13;100161.75;5047713;28;45303;-75
2023/03/23 02:22:04;;;;;;;;;0.67;0.67;;;;;13.31;70.81;100146.53;5056199;28;46260;-75
2023/03/23 02:25:02;;;;;;;;;0.67;0.67;;;;;13.52;71.01;100188.63;5043667;28;45479;-75
2023/03/23 02:28:05;;;;;;;;;1.33;1.00;;;;;13.51;71.19;100187.81;5045118;28;45403;-74
2023/03/23 02:30:41;;;;;;;;;0.67;0.67;;;;;13.50;71.05;100196.81;5058421;28;45285;-73
2023/03/23 02:33:24;;;;;;;;;1.00;1.00;;;;;13.55;70.79;100214.97;5040654;28;46829;-74
2023/03/23 02:35:57;;;;;;;;;1.00;1.00;;;;;13.58;70.45;100193.25;5041562;28;45507;-74
2023/03/23 02:38:38;;;;;;;;;2.00;2.00;;;;;13.51;70.39;100185.13;5052809;28;45567;-76
2023/03/23 02:41:04;;;;;;;;;2.67;1.00;;;;;13.43;70.57;100179.03;5054904;28;45968;-75
2023/03/23 02:43:36;;;;;;;;;1.75;1.75;;;;;13.27;69.96;100146.06;5046698;28;45704;-74
2023/03/23 02:46:06;;;;;;;;;4.00;1.67;;;;;13.62;69.95;100208.78;5038010;28;45606;-75
2023/03/23 02:48:33;;;;;;;;;0.67;0.67;;;;;13.51;69.75;100177.13;5043213;28;45440;-75
2023/03/23 02:51:01;;;;;;;;;3.00;1.67;;;;;13.58;70.03;100185.25;5030191;28;45355;-73
2023/03/23 02:53:30;;;;;;;;;2.33;1.00;;;;;13.58;69.75;100179.91;5033553;28;48159;-75
2023/03/23 02:55:57;;;;;;;;;2.33;1.33;;;;;13.64;69.72;100193.41;5049440;28;45329;-75
2023/03/23 02:58:24;;;;;;;;;0.67;0.67;;;;;13.56;69.80;100173.91;5045537;28;45464;-74
2023/03/23 03:00:51;;;;;;;;;1.50;0.50;;;;;13.13;69.69;100097.91;5038039;28;45615;-79
2023/03/23 03:03:21;;;;;;;;;3.67;2.67;;;;;12.89;69.39;100049.03;5043228;28;45554;-75
2023/03/23 03:06:10;;;;;;;;;1.33;1.00;;;;;13.61;69.73;100175.03;5057216;28;45498;-74
2023/03/23 03:08:55;;;;;;;;;2.00;1.00;;;;;13.62;69.75;100171.38;5052182;28;45320;-76
2023/03/23 03:11:25;;;;;;;;;1.33;1.33;;;;;13.28;69.72;100128.22;5054197;28;45378;-75
2023/03/23 03:14:01;;;;;;;;;3.33;2.33;;;;;13.29;69.79;100117.34;5045971;28;45542;-75
2023/03/23 03:16:35;;;;;;;;;1.33;1.33;;;;;13.56;69.84;100163.22;5031569;28;45481;-75
2023/03/23 03:19:06;;;;;;;;;0.67;0.67;;;;;13.56;70.13;100158.72;5048617;28;45276;-75
2023/03/23 03:21:37;;;;;;;;;1.00;1.00;;;;;13.53;70.02;100164.41;5045251;28;45320;-75
2023/03/23 03:24:04;;;;;;;;;1.67;1.67;;;;;12.67;69.99;100007.97;5045624;28;46054;-76
2023/03/23 03:26:34;;;;;;;;;1.00;0.33;;;;;13.63;70.09;100173.06;5041970;28;45511;-76
2023/03/23 03:29:01;;;;;;;;;4.67;1.67;;;;;13.33;70.11;100120.50;5040864;28;45293;-77
2023/03/23 03:31:30;;;;;;;;;2.67;1.33;;;;;13.38;70.48;100150.16;5031657;28;45298;-75
2023/03/23 03:33:57;;;;;;;;;0.33;0.33;;;;;13.42;70.07;100154.16;5041320;28;45261;-77
2023/03/23 03:36:34;;;;;;;;;0.67;0.67;;;;;13.43;70.36;100142.47;5040599;28;45467;-75
2023/03/23 03:39:05;;;;;;;;;0.67;0.67;;;;;13.62;70.05;100171.38;5058406;28;45550;-75
2023/03/23 03:41:30;;;;;;;;;3.67;1.33;;;;;13.70;69.67;100170.50;5020440;28;45456;-75
2023/03/23 03:43:56;;;;;;;;;1.00;1.00;;;;;13.25;69.70;100100.03;5037134;28;46327;-75
2023/03/23 03:46:21;;;;;;;;;1.00;1.00;;;;;13.67;69.80;100186.88;5037556;28;45242;-75
2023/03/23 03:48:46;;;;;;;;;0.67;0.67;;;;;13.63;69.75;100158.88;5043199;28;45263;-75
2023/03/23 03:51:12;;;;;;;;;1.00;0.67;;;;;13.34;69.88;100106.13;5048692;28;45356;-77
2023/03/23 03:53:37;;;;;;;;;1.00;0.67;;;;;13.53;70.26;100152.91;5044367;28;45648;-75
2023/03/23 03:56:04;;;;;;;;;3.67;2.33;;;;;13.57;71.22;100144.34;5045136;28;45574;-74
2023/03/23 03:58:31;;;;;;;;;2.00;1.67;;;;;13.05;71.02;100086.28;5037782;28;45262;-74
2023/03/23 04:01:00;;;;;;;;;1.33;1.33;;;;;13.36;71.04;100130.81;5052244;28;45519;-76
2023/03/23 04:03:26;;;;;;;;;2.00;2.00;;;;;13.64;71.22;100181.91;5035581;28;47589;-77
2023/03/23 04:05:55;;;;;;;;;1.00;1.00;;;;;13.60;71.25;100173.38;5037395;28;45392;-77
2023/03/23 04:08:24;;;;;;;;;3.33;2.00;;;;;13.64;71.57;100190.72;5028496;28;45295;-76
2023/03/23 04:10:50;;;;;;;;;1.67;1.67;;;;;13.61;71.75;100183.06;5056891;28;45569;-74
2023/03/23 04:13:16;;;;;;;;;1.33;1.33;;;;;13.59;71.70;100173.56;5048195;28;45824;-74
2023/03/23 04:15:43;;;;;;;;;1.25;1.25;;;;;13.29;71.53;100132.53;5056337;28;45515;-76
2023/03/23 04:18:09;;;;;;;;;1.67;1.67;;;;;13.67;71.81;100198.38;5048571;28;45526;-85
2023/03/23 04:20:34;;;;;;;;;1.00;1.00;;;;;13.59;71.02;100182.41;5056525;28;45216;-76
2023/03/23 04:23:01;;;;;;;;;1.75;1.75;;;;;13.62;71.68;100182.06;5050095;28;46278;-75
2023/03/23 04:25:27;;;;;;;;;1.00;0.67;;;;;13.36;71.36;100141.50;5053044;28;45376;-75
2023/03/23 04:27:53;;;;;;;;;1.67;1.67;;;;;13.60;71.38;100191.25;5032073;28;45370;-76
2023/03/23 04:30:24;;;;;;;;;2.67;2.67;;;;;13.51;71.58;100177.13;5037342;28;45277;-75
2023/03/23 04:32:51;;;;;;;;;1.00;1.00;;;;;13.37;71.54;100144.00;5044449;28;45608;-76
2023/03/23 04:35:19;;;;;;;;;2.33;1.00;;;;;13.44;71.42;100170.00;5044635;28;45270;-78
2023/03/23 04:37:45;;;;;;;;;2.00;1.00;;;;;13.15;70.92;100126.06;5048665;28;45392;-74
2023/03/23 04:40:12;;;;;;;;;2.00;1.33;;;;;13.53;70.74;100183.13;5053869;28;45372;-75
2023/03/23 04:42:38;;;;;;;;;2.33;2.33;;;;;13.48;70.42;100176.66;5047371;28;45544;-76
2023/03/23 04:45:06;;;;;;;;;2.00;2.00;;;;;13.28;70.64;100133.56;5044979;28;45237;-76
2023/03/23 04:47:33;;;;;;;;;1.67;1.67;;;;;13.62;70.70;100195.44;5026862;28;45349;-75
2023/03/23 04:50:00;;;;;;;;;1.67;1.67;;;;;13.18;70.30;100128.44;5036504;28;45464;-74
2023/03/23 04:52:28;;;;;;;;;3.00;1.67;;;;;13.37;70.30;100161.84;5052541;28;45763;-76
2023/03/23 04:54:55;;;;;;;;;3.00;1.25;;;;;13.69;70.30;100225.75;5041626;28;45489;-74
2023/03/23 04:57:21;;;;;;;;;1.67;1.67;;;;;13.68;70.22;100210.75;5051261;28;45282;-74
2023/03/23 04:59:47;;;;;;;;;2.67;2.00;;;;;13.66;70.54;100218.09;5039968;28;45229;-75
2023/03/23 05:02:12;;;;;;;;;1.67;0.67;;;;;13.65;70.18;100221.78;5054465;28;46086;-75
2023/03/23 05:04:40;;;;;;;;;1.50;1.50;;;;;13.57;69.88;100208.47;5023127;28;45916;-76
2023/03/23 05:07:06;;;;;;;;;2.00;1.00;;;;;13.41;70.21;100213.88;5045154;28;45433;-76
2023/03/23 05:09:32;;;;;;;;;2.67;2.67;;;;;13.53;70.63;100217.84;5032275;28;45537;-76
2023/03/23 05:11:59;;;;;;;;;1.00;1.00;;;;;13.24;70.23;100180.28;5047616;28;46126;-75
2023/03/23 05:14:25;;;;;;;;;1.67;1.33;;;;;13.44;70.41;100194.03;5047443;28;45286;-76
2023/03/23 05:16:51;;;;;;;;;2.00;0.67;;;;;13.48;69.76;100208.69;5056227;28;45498;-74
2023/03/23 05:19:17;;;;;;;;;0.67;0.67;;;;;12.81;69.49;100089.06;5047549;28;45444;-74
2023/03/23 05:21:44;;;;;;;;;1.67;1.67;;;;;13.57;69.83;100215.63;5022897;28;46384;-74
2023/03/23 05:24:10;;;;;;;;;1.67;1.67;;;;;13.58;69.77;100222.63;5032804;28;45396;-75
2023/03/23 05:26:35;;;;;;;;;3.00;1.00;;;;;13.57;69.25;100208.47;5051097;28;45769;-75
2023/03/23 05:29:00;;;;;;;;;1.33;1.33;;;;;13.25;69.69;100160.59;5055398;28;45652;-73
2023/03/23 05:31:26;;;;;;;;;2.67;2.00;;;;;13.30;70.00;100171.59;5028426;28;47557;-74
2023/03/23 05:33:51;;;;;;;;;1.33;1.33;;;;;12.60;69.97;100064.81;5056207;28;45363;-75
2023/03/23 05:36:17;;;;;;;;;1.33;1.33;;;;;13.56;70.54;100222.81;5022585;28;45534;-75
2023/03/23 05:38:45;;;;;;;;;1.67;1.00;;;;;13.27;70.57;100186.13;5048249;28;45380;-75
2023/03/23 05:41:14;;;;;;;;;1.33;1.33;;;;;13.26;71.34;100183.63;5059228;28;46346;-75
2023/03/23 05:43:40;;;;;;;;;2.67;1.67;;;;;13.51;71.73;100230.53;5050590;28;45420;-74
2023/03/23 05:46:06;;;;;;;;;1.67;1.67;;;;;13.14;72.02;100156.44;5042895;28;45365;-75
2023/03/23 05:48:32;;;;;;;;;1.33;1.33;;;;;13.23;72.10;100175.97;5058672;28;45342;-76
2023/03/23 05:50:58;;;;;;;;;0.67;0.67;;;;;13.27;72.48;100194.13;5037975;28;47398;-76
2023/03/23 05:53:23;;;;;;;;;0.67;0.67;;;;;13.31;72.83;100195.44;5047431;28;45347;-74
2023/03/23 05:55:49;;;;;;;;;1.33;1.33;;;;;13.31;73.11;100187.41;5029505;28;45293;-74
2023/03/23 05:58:14;;;;;;;;;1.67;1.33;;;;;13.43;72.75;100216.41;5044232;28;45408;-77
2023/03/23 06:00:40;;;;;;;;;1.00;1.00;;;;;13.34;73.17;100203.09;5042926;28;46051;-75
2023/03/23 06:03:05;;;;;;;;;1.00;1.00;;;;;13.27;72.96;100185.28;5055928;28;45456;-75
2023/03/23 06:05:32;;;;;;;;;2.67;2.67;;;;;13.28;72.97;100181.59;5045731;28;45309;-76
2023/03/23 06:07:58;;;;;;;;;1.00;1.00;;;;;13.40;73.67;100217.56;5041845;28;45234;-73
2023/03/23 06:10:32;;;;;;;;;1.33;1.33;;;;;13.36;74.35;100216.25;5045794;28;46956;-76
2023/03/23 06:12:57;;;;;;;;;1.33;1.33;;;;;13.29;74.41;100225.97;5056732;28;45503;-78
2023/03/23 06:15:24;;;;;;;;;1.67;1.67;;;;;13.38;73.90;100219.59;5034158;28;50705;-75
2023/03/23 06:17:55;;;;;;;;;1.00;1.00;;;;;13.38;74.32;100224.91;5052501;28;45852;-73
2023/03/23 06:20:21;;;;;;;;;2.33;2.33;;;;;13.38;74.32;100235.59;5054347;28;45903;-76
2023/03/23 06:22:47;;;;;;;;;2.00;2.00;;;;;13.05;74.51;100166.34;5058950;28;53671;-75
2023/03/23 06:25:12;;;;;;;;;1.67;1.67;;;;;13.04;74.32;100175.34;5024187;28;45324;-76
2023/03/23 06:27:38;;;;;;;;;3.00;1.00;;;;;12.99;74.41;100177.69;5050224;28;45386;-76
2023/03/23 06:30:04;;;;;;;;;1.33;1.33;;;;;12.88;74.47;100159.41;5055703;28;46152;-77
2023/03/23 06:32:32;;;;;;;;;3.25;3.00;;;;;13.42;74.51;100236.09;5043869;28;45353;-77
2023/03/23 06:34:57;;;;;;;;;1.67;1.67;;;;;12.35;74.53;100062.25;5040566;28;45356;-76
2023/03/23 06:37:24;;;;;;;;;0.00;0.00;;;;;13.39;74.64;100238.09;5052639;28;45510;-75
2023/03/23 06:39:51;;;;;;;;;2.67;2.67;;;;;12.81;74.90;100158.41;5048003;28;45324;-76
2023/03/23 06:42:17;;;;;;;;;1.00;1.00;;;;;13.40;74.77;100239.75;5038978;28;45789;-75
2023/03/23 06:44:43;;;;;;;;;6.00;2.67;;;;;13.23;74.77;100216.00;5049351;28;45480;-76
2023/03/23 06:47:09;;;;;;;;;3.00;1.67;;;;;12.86;75.01;100169.44;5054426;28;45225;-76
2023/03/23 06:49:35;;;;;;;;;2.00;2.00;;;;;12.95;75.00;100179.03;5048925;28;46905;-76
2023/03/23 06:52:01;;;;;;;;;2.00;2.00;;;;;12.87;75.35;100184.44;5044241;28;45425;-76
2023/03/23 06:54:27;;;;;;;;;3.67;1.67;;;;;13.23;75.28;100218.69;5046252;28;45495;-77
2023/03/23 06:56:52;;;;;;;;;3.33;3.33;;;;;13.47;75.26;100282.63;5053497;28;45515;-78
2023/03/23 06:59:17;;;;;;;;;3.00;3.00;;;;;13.01;74.92;100207.72;5046811;28;45841;-78
2023/03/23 07:01:43;;;;;;;;;2.00;2.00;;;;;13.45;75.04;100265.13;5044397;28;45403;-75
2023/03/23 07:04:08;;;;;;;;;3.33;2.00;;;;;13.12;74.51;100208.34;5048064;28;45632;-75
2023/03/23 07:06:34;;;;;;;;;3.00;3.00;;;;;13.40;74.79;100271.78;5037097;28;45245;-76
2023/03/23 07:08:59;;;;;;;;;3.67;3.67;;;;;13.15;74.67;100234.69;5031341;28;47430;-74
2023/03/23 07:11:25;;;;;;;;;3.33;3.33;;;;;13.51;74.47;100286.63;5036492;28;45337;-77
2023/03/23 07:13:50;;;;;;;;;3.67;1.67;;;;;13.57;74.13;100290.44;5034709;28;45438;-76
2023/03/23 07:16:17;;;;;;;;;3.00;3.00;;;;;12.92;74.32;100176.72;5049285;28;45503;-74
2023/03/23 07:18:43;;;;;;;;;7.00;4.00;;;;;13.09;73.49;100201.50;5050781;28;46369;-76
2023/03/23 07:21:08;;;;;;;;;3.00;2.33;;;;;13.55;73.48;100273.75;5038925;28;45482;-75
2023/03/23 07:23:34;;;;;;;;;4.00;3.00;;;;;13.15;72.79;100198.13;5029811;28;45603;-76
2023/03/23 07:25:59;;;;;;;;;4.00;3.00;;;;;12.88;72.39;100158.59;5050992;28;46842;-76
2023/03/23 07:28:25;;;;;;;;;2.00;2.00;;;;;13.56;72.23;100267.41;5039412;28;47382;-78
2023/03/23 07:30:51;;;;;;;;;2.33;2.33;;;;;13.73;72.31;100297.53;5030613;28;46123;-80
2023/03/23 07:33:17;;;;;;;;;2.33;2.33;;;;;13.74;71.78;100283.16;5047914;28;45502;-78
2023/03/23 07:35:42;;;;;;;;;5.33;3.00;;;;;13.57;71.43;100259.19;5049390;28;45472;-79
2023/03/23 07:38:08;;;;;;;;;2.33;2.33;;;;;13.69;71.50;100281.84;5052899;28;46809;-79
2023/03/23 07:40:34;;;;;;;;;6.00;4.00;;;;;13.75;71.60;100290.16;5050433;28;45606;-79
2023/03/23 07:43:01;;;;;;;;;4.00;3.33;;;;;13.74;71.64;100278.66;5049026;28;45793;-77
2023/03/23 07:45:27;;;;;;;;;2.00;2.00;;;;;13.82;70.82;100294.66;5042136;28;45218;-78
2023/03/23 07:47:53;;;;;;;;;6.67;4.33;;;;;13.37;70.54;100240.09;5025624;28;47431;-78
2023/03/23 07:50:24;;;;;;;;;2.67;2.67;;;;;13.12;70.52;100170.97;5045031;28;45230;-80
2023/03/23 07:52:56;;;;;;;;;3.33;3.00;;;;;13.13;70.30;100180.63;5033860;28;45321;-75
2023/03/23 07:55:24;;;;;;;;;2.33;1.33;;;;;13.89;69.91;100318.81;5052512;28;45419;-77
2023/03/23 07:57:50;;;;;;;;;1.67;1.67;;;;;13.35;69.61;100230.63;5026093;28;48188;-77
2023/03/23 08:00:22;;;;;;;;;2.67;2.00;;;;;13.56;70.00;100243.34;5060594;28;45400;-78
2023/03/23 08:02:52;;;;;;;;;8.33;5.00;;;;;13.93;69.82;100320.97;5040273;28;45586;-78
2023/03/23 08:05:20;;;;;;;;;5.00;5.00;;;;;13.97;69.85;100332.13;5038428;28;45539;-76
2023/03/23 08:07:47;;;;;;;;;3.67;3.00;;;;;13.04;69.49;100175.34;5034631;28;47744;-76
2023/03/23 08:10:14;;;;;;;;;2.00;2.00;;;;;13.88;69.27;100288.59;5048558;28;45430;-76
2023/03/23 08:12:41;;;;;;;;;4.00;2.67;;;;;13.52;68.92;100242.88;5057398;28;45690;-78
2023/03/23 08:15:08;;;;;;;;;4.00;3.00;;;;;13.92;68.59;100321.13;5056004;28;45403;-77
2023/03/23 08:17:34;;;;;;;;;4.00;3.00;;;;;13.68;68.70;100280.19;5028704;28;47917;-79
2023/03/23 08:20:00;;;;;;;;;5.00;3.00;;;;;13.94;68.18;100301.25;5029666;28;45402;-78
2023/03/23 08:22:26;;;;;;;;;8.00;5.00;;;;;13.89;68.17;100260.03;5034298;28;45341;-77
2023/03/23 08:24:52;;;;;;;;;4.00;3.33;;;;;14.11;67.68;100309.16;5049778;28;45389;-78
2023/03/23 08:27:18;;;;;;;;;2.67;1.67;;;;;13.63;66.80;100223.81;5041997;28;45848;-76
2023/03/23 08:29:47;;;;;;;;;2.67;2.67;;;;;14.15;67.24;100307.78;5037369;28;45432;-77
2023/03/23 08:32:13;;;;;;;;;3.33;3.00;;;;;14.32;67.09;100323.53;5033693;28;45452;-76
2023/03/23 08:34:38;;;;;;;;;3.00;3.00;;;;;14.42;66.66;100315.28;5029992;28;45567;-78
2023/03/23 08:37:04;;;;;;;;;4.00;2.67;;;;;14.14;66.02;100264.19;5036719;28;45276;-78
2023/03/23 08:39:30;;;;;;;;;4.33;3.67;;;;;13.98;65.62;100226.88;5041767;28;45286;-76
2023/03/23 08:41:56;;;;;;;;;4.00;3.33;;;;;14.02;65.10;100206.84;5040796;28;45558;-76
2023/03/23 08:44:21;;;;;;;;;2.00;2.00;;;;;14.59;64.92;100291.91;5053456;28;45435;-76
2023/03/23 08:46:47;;;;;;;;;10.33;7.67;;;;;14.42;65.08;100266.31;5056029;28;46346;-76
2023/03/23 08:49:13;;;;;;;;;2.67;2.67;;;;;14.32;64.34;100246.00;5030153;28;45546;-76
2023/03/23 08:51:39;;;;;;;;;6.00;4.00;;;;;14.73;64.64;100306.34;5020484;28;45575;-77
2023/03/23 08:54:05;;;;;;;;;4.33;4.00;;;;;14.49;64.32;100283.34;5034611;28;45646;-81
2023/03/23 08:56:31;;;;;;;;;4.67;4.67;;;;;14.78;64.07;100315.50;5027482;28;48611;-78
2023/03/23 08:58:57;;;;;;;;;5.00;3.67;;;;;14.54;63.99;100270.25;5031535;28;45667;-78
2023/03/23 09:01:22;;;;;;;;;3.67;3.00;;;;;14.00;63.87;100185.59;5036429;28;45290;-77
2023/03/23 09:03:48;;;;;;;;;8.33;5.00;;;;;14.75;63.88;100301.66;5037891;28;45595;-78
2023/03/23 09:06:14;;;;;;;;;5.00;3.33;;;;;14.72;63.88;100302.84;5022106;28;47643;-77
2023/03/23 09:08:39;;;;;;;;;4.00;4.00;;;;;13.78;64.05;100161.56;5052839;28;45512;-78
2023/03/23 09:11:09;;;;;;;;;4.67;3.00;;;;;14.76;63.79;100322.88;5036479;28;45379;-77
2023/03/23 09:13:36;;;;;;;;;4.67;3.00;;;;;14.78;63.64;100347.59;5048658;28;45513;-77
2023/03/23 09:16:03;;;;;;;;;5.33;4.33;;;;;14.40;63.75;100279.84;5041139;28;48524;-77
2023/03/23 09:18:29;;;;;;;;;4.00;3.00;;;;;14.86;63.28;100354.75;5043811;28;45337;-78
2023/03/23 09:20:55;;;;;;;;;4.00;4.00;;;;;14.67;63.22;100286.50;5034538;28;45534;-83
2023/03/23 09:23:20;;;;;;;;;9.00;8.33;;;;;15.23;63.28;100327.09;5043902;28;45504;-76
2023/03/23 09:25:47;;;;;;;;;2.67;2.67;;;;;14.68;61.94;100172.28;5037114;28;48474;-76
2023/03/23 09:28:13;;;;;;;;;4.33;3.00;;;;;14.81;60.69;100154.56;5048592;28;45444;-77
2023/03/23 09:30:40;;;;;;;;;2.75;2.00;;;;;15.87;59.98;100319.31;5060513;28;45379;-77
2023/03/23 09:33:07;;;;;;;;;1.50;1.50;;;;;15.73;59.91;100290.69;5027934;28;45491;-76
2023/03/23 09:35:34;;;;;;;;;1.67;1.67;;;;;15.45;59.43;100210.16;5031325;28;45385;-76
2023/03/23 09:38:00;;;;;;;;;3.00;3.00;;;;;15.28;59.02;100171.22;5035471;28;45437;-77
2023/03/23 09:40:50;;;;;;;;;3.33;2.33;;;;;15.97;59.23;100306.41;5047079;28;45412;-78
2023/03/23 09:43:28;;;;;;;;;3.67;3.00;;;;;15.97;59.48;100322.50;5032952;28;45452;-77
2023/03/23 09:46:17;;;;;;;;;3.33;2.33;;;;;16.55;58.01;100331.34;5059588;28;46256;-76
2023/03/23 09:48:55;;;;;;;;;2.50;2.00;;;;;16.83;56.39;100317.16;5051420;28;45532;-76
2023/03/23 09:51:49;;;;;;;;;2.00;2.00;;;;;16.96;56.18;100333.34;5031411;28;45558;-78
2023/03/23 09:54:25;;;;;;;;;1.00;1.00;;;;;16.65;56.39;100328.34;5032936;28;46086;-78
2023/03/23 09:56:51;;;;;;;;;3.33;3.33;;;;;16.64;56.64;100327.50;5038150;28;48033;-77
2023/03/23 09:59:39;;;;;;;;;2.00;2.00;;;;;16.11;56.52;100246.53;5039720;28;45511;-79
2023/03/23 10:02:17;;;;;;;;;3.00;2.00;;;;;16.27;56.42;100264.22;5038044;28;45464;-77
2023/03/23 10:04:52;;;;;;;;;6.33;5.00;;;;;16.21;56.81;100275.69;5052545;28;45552;-77
2023/03/23 10:07:23;;;;;;;;;2.00;2.00;;;;;16.07;56.28;100198.84;5031375;28;47528;-80
2023/03/23 10:09:54;;;;;;;;;2.33;2.33;;;;;17.03;55.72;100304.72;5046374;28;45542;-76
2023/03/23 10:12:41;;;;;;;;;2.25;1.25;;;;;16.68;54.99;100232.19;5029259;28;45557;-78
2023/03/23 10:15:26;;;;;;;;;2.00;2.00;;;;;17.58;53.84;100319.03;5044434;28;45554;-78
2023/03/23 10:17:59;;;;;;;;;4.00;4.00;;;;;17.45;53.70;100301.03;5047366;28;48435;-75
2023/03/23 10:20:36;;;;;;;;;2.00;2.00;;;;;17.57;53.80;100315.53;5040719;28;45364;-76
2023/03/23 10:23:04;;;;;;;;;3.00;3.00;;;;;17.73;53.55;100319.78;5041063;28;45490;-76
2023/03/23 10:25:35;;;;;;;;;4.00;3.25;;;;;17.90;52.76;100339.91;5058967;28;45433;-76
2023/03/23 10:28:12;;;;;;;;;9.33;6.33;;;;;16.30;52.41;100102.06;5040455;28;47316;-77
2023/03/23 10:30:41;;;;;;;;;5.00;2.67;;;;;17.53;52.80;100329.56;5057068;28;45483;-73
2023/03/23 10:33:14;;;;;;;;;10.67;8.67;;;;;17.70;52.52;100330.94;5043042;28;45506;-76
2023/03/23 10:35:44;;;;;;;;;3.00;3.00;;;;;17.63;52.10;100313.94;5058956;28;45762;-77
2023/03/23 10:38:20;;;;;;;;;9.33;5.33;;;;;17.09;52.66;100228.72;5058387;28;46119;-76
2023/03/23 10:40:53;;;;;;;;;5.33;2.67;;;;;17.57;52.03;100306.63;5058925;28;45164;-77
2023/03/23 10:43:20;;;;;;;;;3.33;3.00;;;;;17.31;51.98;100257.13;5034907;28;45528;-77
2023/03/23 10:45:51;;;;;;;;;4.00;2.67;;;;;17.81;52.09;100334.88;5058652;28;45443;-77
2023/03/23 10:48:32;;;;;;;;;2.00;2.00;;;;;17.67;52.65;100311.66;5062984;28;45575;-77
2023/03/23 10:51:01;;;;;;;;;3.00;3.00;;;;;16.55;52.26;100153.41;5067086;28;45392;-76
2023/03/23 10:53:57;;;;;;;;;2.00;2.00;;;;;17.52;52.52;100330.59;5039275;28;45608;-77
2023/03/23 10:56:57;;;;;;;;;6.00;3.33;;;;;16.96;52.13;100201.78;5050117;28;45639;-77
2023/03/23 10:59:32;;;;;;;;;4.00;3.00;;;;;17.47;51.80;100265.88;4997323;28;48132;-76
2023/03/23 11:02:03;;;;;;;;;3.00;2.00;;;;;17.41;51.81;100272.03;5058333;28;45471;-75
2023/03/23 11:04:30;;;;;;;;;4.00;3.00;;;;;17.57;52.19;100294.03;5058400;28;45266;-76
2023/03/23 11:07:00;;;;;;;;;6.00;5.00;;;;;16.85;51.88;100183.56;5040477;28;45440;-77
2023/03/23 11:09:50;;;;;;;;;2.33;2.33;;;;;17.45;51.89;100290.28;5061277;28;46356;-77
2023/03/23 11:12:18;;;;;;;;;2.75;1.00;;;;;17.79;51.34;100308.19;5058903;28;45470;-77
2023/03/23 11:14:44;;;;;;;;;2.75;2.75;;;;;16.94;51.68;100201.16;5058293;28;45364;-77
2023/03/23 11:17:39;;;;;;;;;4.00;2.00;;;;;17.79;51.87;100318.97;5059115;28;45333;-76
2023/03/23 11:20:12;;;;;;;;;3.00;3.00;;;;;17.28;51.81;100241.41;5030362;28;47852;-75
2023/03/23 11:22:37;;;;;;;;;5.67;4.67;;;;;17.57;51.76;100285.13;5041329;28;45338;-76
2023/03/23 11:25:05;;;;;;;;;4.67;4.00;;;;;17.01;51.77;100210.88;5058772;28;45261;-78
2023/03/23 11:27:33;;;;;;;;;5.00;4.00;;;;;17.76;51.96;100303.22;5059174;28;45287;-79
2023/03/23 11:30:15;;;;;;;;;1.75;1.75;;;;;17.93;51.62;100314.47;5045739;28;48825;-77
2023/03/23 11:32:44;;;;;;;;;6.00;4.75;;;;;18.04;51.40;100324.66;5042594;28;45516;-76